Terminal Aerodrome Forecast
Issued by NWS Sioux Falls, SD

Home | Current Version | Previous Version | Text Only | Print | Product List | Glossary On
Versions: 1 2 3 4 5 6 7 8 9 10 11 12 13 14 15 16 17 18 19
000
FTUS43 KFSD 240300 AAB
TAFSUX
TAF AMD
KSUX 240308Z 2403/2424 11009KT P6SM -RA OVC035
     FM240900 32010KT P6SM BKN035
      TEMPO 2409/2412 4SM -RA BR OVC025
     FM241600 33015G22KT P6SM SCT080
     FM241900 33018G27KT P6SM SKC=

USA.gov is the U.S. government's official web portal to all federal, state and local government web resources and services.